Time;durP1;ratioP1;P1;durP2;ratioP2;P2;SDS_P1;SDS_P2;PMS_P1;PMS_P2;Temp;Humidity;BMP_temperature;BMP_pressure;BME280_temperature;BME280_humidity;BME280_pressure;Samples;Min_cycle;Max_cycle;Signal;HPM_P1;HPM_P2
2023/10/12 00:02:52;;;;;;;16.77;7.53;;;;;;;;;;4945180;28;98652;-82
2023/10/12 00:05:19;;;;;;;12.93;6.60;;;;;;;;;;4958008;28;105658;-82
2023/10/12 00:07:54;;;;;;;14.57;6.70;;;;;;;;;;4968035;28;101349;-83
2023/10/12 00:10:21;;;;;;;13.82;6.13;;;;;;;;;;4963895;28;98912;-82
2023/10/12 00:12:50;;;;;;;12.38;6.00;;;;;;;;;;4963408;28;98793;-85
2023/10/12 00:17:52;;;;;;;15.55;7.65;;;;;;;;;;4949155;28;99882;-81
2023/10/12 00:22:59;;;;;;;12.88;5.78;;;;;;;;;;4953369;28;98469;-81
2023/10/12 00:25:26;;;;;;;13.50;6.57;;;;;;;;;;4966158;28;98933;-82
2023/10/12 00:27:52;;;;;;;16.55;8.10;;;;;;;;;;4965453;28;101664;-81
2023/10/12 00:30:19;;;;;;;12.60;6.22;;;;;;;;;;4948988;28;98966;-82
2023/10/12 00:32:45;;;;;;;14.18;6.30;;;;;;;;;;4946083;28;101850;-82
2023/10/12 00:35:14;;;;;;;14.13;6.30;;;;;;;;;;4961049;28;99453;-81
2023/10/12 00:37:43;;;;;;;12.32;5.97;;;;;;;;;;4933550;28;100844;-82
2023/10/12 00:40:26;;;;;;;11.57;5.68;;;;;;;;;;4966339;28;100922;-81
2023/10/12 00:42:53;;;;;;;12.00;5.80;;;;;;;;;;4967570;28;98570;-82
2023/10/12 00:45:28;;;;;;;13.32;5.95;;;;;;;;;;4954364;28;100007;-82
2023/10/12 00:48:04;;;;;;;14.10;6.63;;;;;;;;;;4948182;28;99592;-82
2023/10/12 00:50:31;;;;;;;14.40;7.10;;;;;;;;;;4970660;28;97833;-82
2023/10/12 00:53:14;;;;;;;12.07;6.28;;;;;;;;;;4952602;28;101441;-82
2023/10/12 00:55:41;;;;;;;14.15;6.75;;;;;;;;;;4928445;28;99176;-82
2023/10/12 00:58:08;;;;;;;13.50;6.50;;;;;;;;;;4961130;28;99823;-82
2023/10/12 01:00:35;;;;;;;18.98;8.80;;;;;;;;;;4940745;28;99599;-82
2023/10/12 01:03:27;;;;;;;15.50;7.75;;;;;;;;;;4947228;28;99039;-81
2023/10/12 01:06:12;;;;;;;16.33;8.13;;;;;;;;;;4949469;28;99777;-77
2023/10/12 01:08:42;;;;;;;12.50;6.25;;;;;;;;;;4966973;28;99795;-81
2023/10/12 01:11:17;;;;;;;13.88;7.10;;;;;;;;;;4936840;28;99094;-81
2023/10/12 01:13:45;;;;;;;17.08;7.82;;;;;;;;;;4930816;28;100347;-81
2023/10/12 01:16:20;;;;;;;12.18;6.28;;;;;;;;;;4928840;28;99093;-81
2023/10/12 01:18:48;;;;;;;14.05;7.05;;;;;;;;;;4949486;28;99757;-81
2023/10/12 01:21:15;;;;;;;16.67;7.53;;;;;;;;;;4952990;28;98930;-81
2023/10/12 01:23:47;;;;;;;13.93;7.18;;;;;;;;;;4952564;28;99440;-80
2023/10/12 01:26:14;;;;;;;13.48;6.05;;;;;;;;;;4959010;28;102802;-81
2023/10/12 01:28:44;;;;;;;16.00;8.32;;;;;;;;;;4945643;28;99213;-81
2023/10/12 01:31:11;;;;;;;13.10;5.70;;;;;;;;;;4945196;28;98655;-81
2023/10/12 01:33:41;;;;;;;14.07;6.45;;;;;;;;;;4960789;28;100291;-81
2023/10/12 01:36:08;;;;;;;13.10;6.47;;;;;;;;;;4964681;28;99372;-82
2023/10/12 01:38:37;;;;;;;15.30;6.18;;;;;;;;;;4966523;28;98861;-81
2023/10/12 01:41:09;;;;;;;13.15;5.90;;;;;;;;;;4955441;28;98913;-81
2023/10/12 01:43:36;;;;;;;12.10;5.75;;;;;;;;;;4948439;28;102479;-81
2023/10/12 01:46:08;;;;;;;12.98;5.72;;;;;;;;;;4951244;28;101886;-81
2023/10/12 01:48:35;;;;;;;12.10;5.38;;;;;;;;;;4955316;28;99879;-81
2023/10/12 01:51:04;;;;;;;11.60;5.63;;;;;;;;;;4937477;28;98641;-81
2023/10/12 01:53:32;;;;;;;13.48;6.13;;;;;;;;;;4951257;28;98967;-81
2023/10/12 01:55:59;;;;;;;13.00;5.75;;;;;;;;;;4924610;28;100978;-81
2023/10/12 01:58:32;;;;;;;12.88;6.28;;;;;;;;;;4947072;28;98989;-81
2023/10/12 02:01:05;;;;;;;15.45;5.68;;;;;;;;;;4948544;28;99922;-82
2023/10/12 02:03:37;;;;;;;12.80;5.35;;;;;;;;;;4944991;28;99327;-82
2023/10/12 02:06:13;;;;;;;16.73;5.70;;;;;;;;;;4965229;28;97749;-82
2023/10/12 02:08:45;;;;;;;16.48;5.43;;;;;;;;;;4958628;28;99195;-82
2023/10/12 02:13:50;;;;;;;11.98;4.72;;;;;;;;;;4958784;28;101726;-82
2023/10/12 02:16:24;;;;;;;10.80;4.95;;;;;;;;;;4963615;28;99169;-82
2023/10/12 02:18:53;;;;;;;15.15;5.30;;;;;;;;;;4946766;28;98578;-83
2023/10/12 02:21:22;;;;;;;12.98;4.28;;;;;;;;;;4944530;28;101278;-83
2023/10/12 02:23:54;;;;;;;10.38;4.65;;;;;;;;;;4934845;28;99268;-83
2023/10/12 02:34:17;;;;;;;11.85;4.63;;;;;;;;;;4965266;28;99164;-81
2023/10/12 02:39:42;;;;;;;11.00;4.40;;;;;;;;;;4964508;28;99295;-79
2023/10/12 02:47:29;;;;;;;9.82;4.35;;;;;;;;;;4956208;28;99081;-81
2023/10/12 02:52:43;;;;;;;10.40;4.10;;;;;;;;;;4955766;28;98605;-81
2023/10/12 02:58:24;;;;;;;9.65;3.80;;;;;;;;;;4961954;28;98462;-81
2023/10/12 03:05:58;;;;;;;9.43;3.90;;;;;;;;;;4956660;28;100997;-81
2023/10/12 03:08:30;;;;;;;8.60;3.63;;;;;;;;;;4965867;28;98577;-80
2023/10/12 03:13:34;;;;;;;8.77;3.33;;;;;;;;;;4959397;28;99475;-80
2023/10/12 03:16:11;;;;;;;7.70;3.42;;;;;;;;;;4964709;28;98743;-80
2023/10/12 03:18:39;;;;;;;10.20;3.70;;;;;;;;;;4960338;28;99875;-80
2023/10/12 03:21:11;;;;;;;8.93;3.55;;;;;;;;;;4947215;28;98547;-81
2023/10/12 03:23:39;;;;;;;8.77;3.58;;;;;;;;;;4952805;28;101034;-80
2023/10/12 03:26:24;;;;;;;8.93;3.60;;;;;;;;;;4962181;28;99232;-81
2023/10/12 03:31:53;;;;;;;8.13;3.40;;;;;;;;;;4955313;28;99471;-80
2023/10/12 03:34:36;;;;;;;7.70;3.30;;;;;;;;;;4944498;28;104700;-80
2023/10/12 03:37:13;;;;;;;6.65;3.10;;;;;;;;;;4968315;28;98568;-80
2023/10/12 03:44:57;;;;;;;9.60;3.55;;;;;;;;;;4968011;28;99805;-81
2023/10/12 03:47:29;;;;;;;7.30;2.95;;;;;;;;;;4947941;28;99668;-80
2023/10/12 03:49:59;;;;;;;7.25;2.88;;;;;;;;;;4962707;28;97875;-80
2023/10/12 03:52:34;;;;;;;7.25;3.00;;;;;;;;;;4952715;28;98861;-80
2023/10/12 04:03:33;;;;;;;7.18;2.90;;;;;;;;;;4946533;28;98488;-81
2023/10/12 04:05:50;;;;;;;4.78;2.28;;;;;;;;;;4962993;28;99231;-81
2023/10/12 04:08:37;;;;;;;5.03;2.15;;;;;;;;;;4965429;28;103059;-80
2023/10/12 04:21:26;;;;;;;5.22;1.80;;;;;;;;;;4958631;28;99070;-80
2023/10/12 04:29:13;;;;;;;4.68;1.90;;;;;;;;;;4959819;28;102254;-81
2023/10/12 04:34:15;;;;;;;4.35;1.80;;;;;;;;;;4936314;28;99439;-81
2023/10/12 04:36:44;;;;;;;5.55;1.88;;;;;;;;;;4961856;28;99658;-82
2023/10/12 04:46:51;;;;;;;5.32;1.70;;;;;;;;;;4956764;28;99306;-81
2023/10/12 04:57:26;;;;;;;4.32;1.60;;;;;;;;;;4959900;28;100516;-81
2023/10/12 05:02:58;;;;;;;3.35;1.50;;;;;;;;;;4941450;28;104101;-79
2023/10/12 05:07:58;;;;;;;3.75;1.48;;;;;;;;;;4970929;28;98114;-82
2023/10/12 05:10:46;;;;;;;4.82;1.83;;;;;;;;;;4948070;28;104561;-82
2023/10/12 05:13:19;;;;;;;3.63;1.50;;;;;;;;;;4948969;28;98932;-81
2023/10/12 05:15:55;;;;;;;4.05;1.60;;;;;;;;;;4966171;28;99234;-81
2023/10/12 05:18:23;;;;;;;3.72;1.20;;;;;;;;;;4965319;28;104079;-81
2023/10/12 05:20:50;;;;;;;2.28;1.20;;;;;;;;;;4961986;28;98468;-81
2023/10/12 05:23:17;;;;;;;3.20;1.30;;;;;;;;;;4947774;28;101241;-81
2023/10/12 05:28:18;;;;;;;2.70;1.35;;;;;;;;;;4944142;28;98851;-81
2023/10/12 05:36:04;;;;;;;3.20;1.30;;;;;;;;;;4966363;28;98609;-81
2023/10/12 05:38:37;;;;;;;3.72;1.05;;;;;;;;;;4965900;28;100157;-81
2023/10/12 05:41:13;;;;;;;3.65;1.17;;;;;;;;;;4937814;28;99310;-81
2023/10/12 05:43:40;;;;;;;2.30;1.27;;;;;;;;;;4928177;28;99550;-81
2023/10/12 05:46:13;;;;;;;2.42;1.20;;;;;;;;;;4927510;28;99680;-80
2023/10/12 05:48:45;;;;;;;2.75;1.20;;;;;;;;;;4953204;28;98582;-80
2023/10/12 05:51:12;;;;;;;2.92;1.20;;;;;;;;;;4948258;28;101841;-80
2023/10/12 05:53:39;;;;;;;2.60;1.10;;;;;;;;;;4958036;28;100164;-81
2023/10/12 05:56:06;;;;;;;3.90;1.20;;;;;;;;;;4942706;28;98976;-80
2023/10/12 05:58:34;;;;;;;1.45;1.00;;;;;;;;;;4949862;28;98581;-83
2023/10/12 06:01:08;;;;;;;1.55;0.90;;;;;;;;;;4963421;28;98640;-80
2023/10/12 06:03:36;;;;;;;2.60;1.10;;;;;;;;;;4941555;28;99115;-82
2023/10/12 06:06:02;;;;;;;1.95;1.00;;;;;;;;;;4945126;28;99967;-82
2023/10/12 06:08:30;;;;;;;2.83;1.08;;;;;;;;;;4952234;28;98825;-82
2023/10/12 06:10:58;;;;;;;2.58;1.00;;;;;;;;;;4944099;28;99067;-81
2023/10/12 06:13:32;;;;;;;2.38;1.00;;;;;;;;;;4958186;28;99373;-81
2023/10/12 06:15:58;;;;;;;2.65;0.95;;;;;;;;;;4971732;28;98616;-81
2023/10/12 06:18:30;;;;;;;2.88;1.20;;;;;;;;;;4962753;28;99029;-82
2023/10/12 06:21:06;;;;;;;4.82;1.08;;;;;;;;;;4950117;28;98538;-82
2023/10/12 06:23:39;;;;;;;5.68;1.00;;;;;;;;;;4949983;28;99680;-81
2023/10/12 06:26:09;;;;;;;2.08;1.00;;;;;;;;;;4948152;28;99731;-82
2023/10/12 06:28:38;;;;;;;2.75;0.80;;;;;;;;;;4951504;28;98513;-80
2023/10/12 06:31:07;;;;;;;2.20;1.00;;;;;;;;;;4934839;28;100904;-81
2023/10/12 06:33:40;;;;;;;2.60;0.90;;;;;;;;;;4958286;28;105734;-80
2023/10/12 06:36:16;;;;;;;2.35;1.00;;;;;;;;;;4947352;28;98512;-80
2023/10/12 06:39:02;;;;;;;2.50;0.95;;;;;;;;;;4929608;28;98943;-80
2023/10/12 06:44:12;;;;;;;2.67;0.90;;;;;;;;;;4960699;28;101543;-80
2023/10/12 06:46:46;;;;;;;2.58;0.90;;;;;;;;;;4951929;28;100207;-80
2023/10/12 06:49:22;;;;;;;5.47;0.90;;;;;;;;;;4955167;28;97832;-81
2023/10/12 06:52:24;;;;;;;1.73;0.85;;;;;;;;;;4944969;28;98569;-81
2023/10/12 06:54:49;;;;;;;2.75;1.10;;;;;;;;;;4940218;28;105156;-81
2023/10/12 07:02:34;;;;;;;1.42;0.70;;;;;;;;;;4939966;28;99268;-80
2023/10/12 07:05:04;;;;;;;1.73;0.70;;;;;;;;;;4948503;28;101577;-80
2023/10/12 07:07:40;;;;;;;1.55;0.82;;;;;;;;;;4957000;28;99272;-80
2023/10/12 07:12:43;;;;;;;1.95;0.85;;;;;;;;;;4951159;28;99904;-80
2023/10/12 07:15:21;;;;;;;1.33;0.77;;;;;;;;;;4963873;28;100006;-80
2023/10/12 07:17:49;;;;;;;1.48;0.80;;;;;;;;;;4959825;28;98942;-80
2023/10/12 07:23:15;;;;;;;1.90;0.70;;;;;;;;;;4945068;28;99995;-80
2023/10/12 07:25:49;;;;;;;1.20;0.77;;;;;;;;;;4944470;28;99653;-80
2023/10/12 07:28:25;;;;;;;1.35;0.70;;;;;;;;;;4949771;28;100357;-80
2023/10/12 07:31:23;;;;;;;1.67;1.00;;;;;;;;;;4932382;28;98927;-80
2023/10/12 07:36:36;;;;;;;1.27;0.73;;;;;;;;;;4950034;28;103573;-80
2023/10/12 07:39:26;;;;;;;2.33;1.00;;;;;;;;;;4941580;28;98542;-80
2023/10/12 07:41:57;;;;;;;1.08;0.63;;;;;;;;;;4964647;28;98874;-80
2023/10/12 07:44:27;;;;;;;1.35;0.70;;;;;;;;;;4961683;28;103787;-79
2023/10/12 07:46:57;;;;;;;1.05;0.70;;;;;;;;;;4954200;28;98437;-80
2023/10/12 07:49:37;;;;;;;1.83;0.63;;;;;;;;;;4956391;28;99836;-80
2023/10/12 07:57:19;;;;;;;1.70;0.77;;;;;;;;;;4963452;28;99468;-80
2023/10/12 07:59:54;;;;;;;0.77;0.60;;;;;;;;;;4953872;28;99813;-80
2023/10/12 08:02:59;;;;;;;1.63;0.80;;;;;;;;;;4937651;28;104512;-80
2023/10/12 08:21:22;;;;;;;;;;;;;;;;;;4956733;28;98925;-80
2023/10/12 08:23:58;;;;;;;1.67;0.88;;;;;;;;;;4938938;28;112570;-80
2023/10/12 08:29:17;;;;;;;2.05;0.70;;;;;;;;;;4951759;28;98554;-80
2023/10/12 08:31:44;;;;;;;2.50;0.60;;;;;;;;;;4954691;28;100739;-80
2023/10/12 08:34:13;;;;;;;0.98;0.70;;;;;;;;;;4977934;28;99021;-80
2023/10/12 08:39:37;;;;;;;1.70;0.70;;;;;;;;;;4935786;28;99248;-80
2023/10/12 08:44:58;;;;;;;2.25;0.70;;;;;;;;;;4954791;28;99584;-80
2023/10/12 08:47:40;;;;;;;1.70;0.80;;;;;;;;;;4953633;28;99748;-80
2023/10/12 08:52:39;;;;;;;1.33;0.60;;;;;;;;;;4966056;28;100138;-80
2023/10/12 08:55:13;;;;;;;1.38;0.70;;;;;;;;;;4942445;28;99232;-80
2023/10/12 08:58:01;;;;;;;2.25;0.70;;;;;;;;;;4935623;28;98634;-80
2023/10/12 09:03:24;;;;;;;1.33;0.60;;;;;;;;;;4944295;28;98662;-80
2023/10/12 09:05:51;;;;;;;1.10;0.60;;;;;;;;;;4948798;28;99491;-80
2023/10/12 09:10:51;;;;;;;1.60;0.70;;;;;;;;;;4948975;28;98658;-80
2023/10/12 09:13:18;;;;;;;1.50;0.60;;;;;;;;;;4947794;28;98892;-79
2023/10/12 09:15:46;;;;;;;1.52;0.57;;;;;;;;;;4970983;28;98964;-79
2023/10/12 09:18:14;;;;;;;1.17;0.63;;;;;;;;;;4962526;28;99655;-80
2023/10/12 09:20:42;;;;;;;1.60;0.70;;;;;;;;;;4950399;28;99773;-79
2023/10/12 09:23:13;;;;;;;1.48;0.70;;;;;;;;;;4955235;28;98707;-80
2023/10/12 09:28:38;;;;;;;1.05;0.63;;;;;;;;;;4965214;28;104898;-81
2023/10/12 09:31:09;;;;;;;1.05;0.52;;;;;;;;;;4962282;28;98962;-81
2023/10/12 09:33:45;;;;;;;1.63;0.90;;;;;;;;;;4961813;28;99145;-80
2023/10/12 09:36:12;;;;;;;1.13;0.50;;;;;;;;;;4955260;28;99013;-80
2023/10/12 09:38:38;;;;;;;0.98;0.70;;;;;;;;;;4945340;28;98474;-81
2023/10/12 09:41:08;;;;;;;1.75;0.60;;;;;;;;;;4964025;28;100421;-80
2023/10/12 09:43:38;;;;;;;1.30;0.68;;;;;;;;;;4946331;28;98616;-81
2023/10/12 09:46:07;;;;;;;1.45;0.70;;;;;;;;;;4932156;28;98810;-80
2023/10/12 09:48:38;;;;;;;0.80;0.50;;;;;;;;;;4949552;28;101678;-80
2023/10/12 09:51:10;;;;;;;1.23;0.60;;;;;;;;;;4966653;28;98166;-81
2023/10/12 09:53:41;;;;;;;0.60;0.60;;;;;;;;;;4934074;28;99283;-80
2023/10/12 09:56:15;;;;;;;1.17;0.57;;;;;;;;;;4944732;28;99656;-79
2023/10/12 09:58:51;;;;;;;1.17;0.70;;;;;;;;;;4959683;28;99258;-80
2023/10/12 10:01:25;;;;;;;1.33;0.70;;;;;;;;;;4945984;28;99761;-79
2023/10/12 10:03:52;;;;;;;0.90;0.60;;;;;;;;;;4942351;28;100780;-80
2023/10/12 10:11:59;;;;;;;1.30;0.52;;;;;;;;;;4947093;28;98463;-80
2023/10/12 10:14:34;;;;;;;1.42;0.70;;;;;;;;;;4959186;28;99099;-80
2023/10/12 10:17:01;;;;;;;0.77;0.60;;;;;;;;;;4955076;28;98621;-80
2023/10/12 10:19:30;;;;;;;1.33;0.80;;;;;;;;;;4947776;28;99362;-81
2023/10/12 10:22:11;;;;;;;0.93;0.60;;;;;;;;;;4936018;28;98983;-81
2023/10/12 10:24:43;;;;;;;1.38;0.57;;;;;;;;;;4943610;28;101541;-81
2023/10/12 10:27:14;;;;;;;0.73;0.50;;;;;;;;;;4969178;28;98589;-81
2023/10/12 10:29:54;;;;;;;1.00;0.65;;;;;;;;;;4965670;28;99172;-81
2023/10/12 10:32:21;;;;;;;1.38;0.60;;;;;;;;;;4949538;28;98648;-81
2023/10/12 10:34:55;;;;;;;0.60;0.60;;;;;;;;;;4942605;28;98667;-81
2023/10/12 10:37:22;;;;;;;;;;;;;;;;;;4948602;28;99191;-81
2023/10/12 10:39:49;;;;;;;0.60;0.60;;;;;;;;;;4962885;28;99071;-81
2023/10/12 10:42:15;;;;;;;0.95;0.80;;;;;;;;;;4965020;28;98774;-80
2023/10/12 10:44:42;;;;;;;0.60;0.60;;;;;;;;;;4965140;28;99324;-81
2023/10/12 10:47:12;;;;;;;0.68;0.63;;;;;;;;;;4953947;28;98511;-81
2023/10/12 10:49:45;;;;;;;0.82;0.60;;;;;;;;;;4949416;28;99278;-81
2023/10/12 10:52:18;;;;;;;1.38;0.65;;;;;;;;;;4944522;28;98521;-81
2023/10/12 10:54:56;;;;;;;1.00;0.65;;;;;;;;;;4941301;28;99602;-81
2023/10/12 10:57:37;;;;;;;1.42;0.52;;;;;;;;;;4960430;28;101394;-81
2023/10/12 11:00:15;;;;;;;0.85;0.68;;;;;;;;;;4959754;28;98686;-80
2023/10/12 11:02:45;;;;;;;0.90;0.73;;;;;;;;;;4946409;28;99303;-81
2023/10/12 11:05:19;;;;;;;1.17;0.70;;;;;;;;;;4945215;28;99667;-81
2023/10/12 11:07:50;;;;;;;1.45;0.65;;;;;;;;;;4958446;28;98328;-81
2023/10/12 11:10:31;;;;;;;2.05;0.70;;;;;;;;;;4947563;28;99256;-81
2023/10/12 11:13:03;;;;;;;1.10;0.77;;;;;;;;;;4953838;28;98792;-81
2023/10/12 11:15:32;;;;;;;1.45;0.77;;;;;;;;;;4932490;28;99797;-81
2023/10/12 11:18:07;;;;;;;1.45;0.70;;;;;;;;;;4944679;28;101220;-81
2023/10/12 11:20:57;;;;;;;1.48;0.70;;;;;;;;;;4934833;28;98523;-81
2023/10/12 11:23:22;;;;;;;1.52;0.70;;;;;;;;;;4950990;28;99003;-81
2023/10/12 11:25:49;;;;;;;0.68;0.60;;;;;;;;;;4963776;28;99295;-81
2023/10/12 11:28:19;;;;;;;1.88;0.77;;;;;;;;;;4964073;28;99151;-81
2023/10/12 11:30:46;;;;;;;1.58;0.77;;;;;;;;;;4943924;28;99148;-81
2023/10/12 11:33:13;;;;;;;1.02;0.70;;;;;;;;;;4949181;28;98699;-80
2023/10/12 11:35:40;;;;;;;1.20;0.80;;;;;;;;;;4944224;28;98683;-81
2023/10/12 11:38:25;;;;;;;1.50;0.80;;;;;;;;;;4946094;28;99252;-80
2023/10/12 11:40:53;;;;;;;;;;;;;;;;;;4965054;28;99653;-81
2023/10/12 11:43:21;;;;;;;1.27;0.70;;;;;;;;;;4966087;28;118583;-81
2023/10/12 11:45:56;;;;;;;2.10;1.05;;;;;;;;;;4952457;28;100401;-80
2023/10/12 11:48:24;;;;;;;1.58;0.80;;;;;;;;;;4948103;28;98630;-80
2023/10/12 11:50:51;;;;;;;1.48;0.88;;;;;;;;;;4947644;28;99593;-80
2023/10/12 11:53:18;;;;;;;1.55;0.73;;;;;;;;;;4954535;28;100476;-81
2023/10/12 11:55:45;;;;;;;1.27;0.80;;;;;;;;;;4945315;28;98954;-80
2023/10/12 11:58:16;;;;;;;1.25;0.90;;;;;;;;;;4964487;28;99774;-80
2023/10/12 12:00:48;;;;;;;2.75;0.90;;;;;;;;;;4950470;28;99078;-79
2023/10/12 12:03:16;;;;;;;1.58;1.15;;;;;;;;;;4943636;28;99291;-81
2023/10/12 12:05:43;;;;;;;1.55;1.10;;;;;;;;;;4962552;28;102135;-80
2023/10/12 12:08:18;;;;;;;1.45;1.02;;;;;;;;;;4958012;28;98597;-80
2023/10/12 12:10:45;;;;;;;1.73;0.90;;;;;;;;;;4959033;28;98990;-80
2023/10/12 12:13:15;;;;;;;1.23;0.90;;;;;;;;;;4943090;28;99109;-80
2023/10/12 12:15:45;;;;;;;1.70;1.00;;;;;;;;;;4947669;28;98940;-81
2023/10/12 12:20:44;;;;;;;1.10;0.90;;;;;;;;;;4963431;28;98635;-81
2023/10/12 12:23:11;;;;;;;2.08;0.98;;;;;;;;;;4953223;28;99021;-81
2023/10/12 12:25:41;;;;;;;1.48;0.90;;;;;;;;;;4918492;28;100402;-81
2023/10/12 12:28:14;;;;;;;1.50;1.00;;;;;;;;;;4938338;28;98960;-81
2023/10/12 12:30:51;;;;;;;1.55;0.90;;;;;;;;;;4952149;28;99757;-81
2023/10/12 12:33:25;;;;;;;1.30;1.10;;;;;;;;;;4960393;28;99220;-81
2023/10/12 12:35:59;;;;;;;1.35;1.00;;;;;;;;;;4959791;28;98558;-80
2023/10/12 12:40:57;;;;;;;3.50;1.20;;;;;;;;;;4968221;28;100328;-81
2023/10/12 12:43:24;;;;;;;2.17;1.00;;;;;;;;;;4947959;28;98753;-81
2023/10/12 12:45:52;;;;;;;2.03;1.20;;;;;;;;;;4962717;28;99134;-81
2023/10/12 12:48:19;;;;;;;2.17;0.80;;;;;;;;;;4948725;28;97887;-81
2023/10/12 12:50:49;;;;;;;1.95;1.30;;;;;;;;;;4967717;28;99024;-81
2023/10/12 12:53:18;;;;;;;2.58;1.33;;;;;;;;;;4963891;28;99122;-81
2023/10/12 12:55:46;;;;;;;2.78;1.30;;;;;;;;;;4940815;28;99915;-81
2023/10/12 12:58:17;;;;;;;2.83;1.52;;;;;;;;;;4931957;28;101124;-81
2023/10/12 13:00:47;;;;;;;2.95;1.60;;;;;;;;;;4961552;28;99489;-81
2023/10/12 13:03:14;;;;;;;3.42;1.60;;;;;;;;;;4946916;28;98538;-80
2023/10/12 13:05:41;;;;;;;;;;;;;;;;;;4936463;28;100434;-82
2023/10/12 13:08:11;;;;;;;3.42;1.50;;;;;;;;;;4945517;28;99158;-81
2023/10/12 13:10:39;;;;;;;3.38;1.50;;;;;;;;;;4954872;28;99081;-82
2023/10/12 13:13:06;;;;;;;3.00;1.30;;;;;;;;;;4950644;28;98405;-81
2023/10/12 13:15:41;;;;;;;3.30;1.50;;;;;;;;;;4947562;28;98525;-81
2023/10/12 13:18:14;;;;;;;3.25;1.50;;;;;;;;;;4960703;28;99518;-80
2023/10/12 13:20:46;;;;;;;2.88;1.42;;;;;;;;;;4963558;28;99922;-80
2023/10/12 13:23:14;;;;;;;3.75;1.60;;;;;;;;;;4955476;28;99147;-79
2023/10/12 13:25:40;;;;;;;4.28;1.70;;;;;;;;;;4941444;28;99023;-79
2023/10/12 13:28:09;;;;;;;4.85;1.70;;;;;;;;;;4955496;28;98484;-79
2023/10/12 13:30:37;;;;;;;4.80;1.63;;;;;;;;;;4950118;28;99298;-80
2023/10/12 13:33:09;;;;;;;4.35;1.90;;;;;;;;;;4953226;28;100506;-79
2023/10/12 13:35:41;;;;;;;4.45;1.85;;;;;;;;;;4954073;28;99114;-81
2023/10/12 13:38:12;;;;;;;4.72;2.00;;;;;;;;;;4931276;28;97861;-81
2023/10/12 13:40:39;;;;;;;5.25;2.10;;;;;;;;;;4940179;28;99454;-82
2023/10/12 13:43:15;;;;;;;5.00;2.22;;;;;;;;;;4954708;28;99231;-82
2023/10/12 13:45:47;;;;;;;4.93;2.15;;;;;;;;;;4947118;28;101449;-82
2023/10/12 13:48:20;;;;;;;5.65;2.20;;;;;;;;;;4957635;28;98453;-81
2023/10/12 13:50:59;;;;;;;5.93;2.58;;;;;;;;;;4954052;28;98525;-81
2023/10/12 13:53:26;;;;;;;5.88;2.55;;;;;;;;;;4940803;28;99295;-80
2023/10/12 13:55:53;;;;;;;5.68;2.40;;;;;;;;;;4957506;28;98564;-79
2023/10/12 13:58:24;;;;;;;8.13;2.67;;;;;;;;;;4942350;28;104239;-80
2023/10/12 14:00:53;;;;;;;18.17;3.00;;;;;;;;;;4963956;28;99114;-79
2023/10/12 14:03:34;;;;;;;10.13;2.88;;;;;;;;;;4954769;28;97889;-80
2023/10/12 14:06:02;;;;;;;15.45;3.03;;;;;;;;;;4940659;28;98632;-79
2023/10/12 14:08:32;;;;;;;20.70;3.50;;;;;;;;;;4959546;28;99636;-79
2023/10/12 14:11:03;;;;;;;17.42;3.85;;;;;;;;;;4953325;28;99389;-80
2023/10/12 14:13:31;;;;;;;23.35;3.85;;;;;;;;;;4956119;28;98588;-81
2023/10/12 14:15:58;;;;;;;20.35;2.95;;;;;;;;;;4949345;28;98608;-79
2023/10/12 14:18:28;;;;;;;20.02;3.05;;;;;;;;;;4946883;28;99962;-81
2023/10/12 14:20:55;;;;;;;21.42;3.22;;;;;;;;;;4938560;28;100050;-80
2023/10/12 14:23:26;;;;;;;19.83;3.50;;;;;;;;;;4948898;28;99138;-80
2023/10/12 14:25:57;;;;;;;13.60;2.90;;;;;;;;;;4952356;28;99505;-79
2023/10/12 14:28:31;;;;;;;17.08;3.47;;;;;;;;;;4931772;28;104570;-80
2023/10/12 14:30:58;;;;;;;16.98;2.95;;;;;;;;;;4953719;28;99219;-80
2023/10/12 14:33:26;;;;;;;17.30;2.63;;;;;;;;;;4941228;28;100183;-81
2023/10/12 14:35:54;;;;;;;12.82;3.33;;;;;;;;;;4945543;28;99634;-78
2023/10/12 14:38:22;;;;;;;14.20;3.25;;;;;;;;;;4966759;28;106650;-80
2023/10/12 14:40:50;;;;;;;14.82;2.60;;;;;;;;;;4969316;28;98593;-80
2023/10/12 14:43:21;;;;;;;21.48;2.85;;;;;;;;;;4957139;28;98614;-81
2023/10/12 14:45:58;;;;;;;19.45;3.13;;;;;;;;;;4963663;28;98871;-80
2023/10/12 14:48:26;;;;;;;16.27;2.90;;;;;;;;;;4943802;28;106358;-79
2023/10/12 14:51:48;;;;;;;18.10;2.63;;;;;;;;;;4941899;28;98597;-79
2023/10/12 14:53:58;;;;;;;18.33;2.60;;;;;;;;;;4949396;28;98990;-78
2023/10/12 14:56:29;;;;;;;24.80;3.05;;;;;;;;;;4949278;28;99040;-81
2023/10/12 14:58:56;;;;;;;25.83;3.35;;;;;;;;;;4959654;28;98694;-79
2023/10/12 15:01:27;;;;;;;13.27;2.53;;;;;;;;;;4961803;28;99787;-79
2023/10/12 15:03:55;;;;;;;13.90;2.53;;;;;;;;;;4941158;28;98945;-79
2023/10/12 15:06:22;;;;;;;8.75;2.30;;;;;;;;;;4965597;28;99843;-79
2023/10/12 15:08:52;;;;;;;14.63;2.70;;;;;;;;;;4964730;28;99235;-79
2023/10/12 15:11:19;;;;;;;9.27;2.45;;;;;;;;;;4964321;28;98483;-80
2023/10/12 15:13:48;;;;;;;13.70;2.50;;;;;;;;;;4955047;28;99449;-80
2023/10/12 15:16:15;;;;;;;8.40;2.53;;;;;;;;;;4942075;28;101797;-80
2023/10/12 15:18:42;;;;;;;10.50;2.40;;;;;;;;;;4923842;28;101457;-80
2023/10/12 15:21:10;;;;;;;11.27;2.40;;;;;;;;;;4936571;28;100473;-78
2023/10/12 15:23:55;;;;;;;8.85;2.53;;;;;;;;;;4939393;28;98869;-80
2023/10/12 15:26:22;;;;;;;10.82;2.53;;;;;;;;;;4963717;28;99912;-80
2023/10/12 15:28:50;;;;;;;5.70;2.30;;;;;;;;;;4943213;28;100948;-81
2023/10/12 15:31:22;;;;;;;7.32;2.50;;;;;;;;;;4939169;28;98913;-80
2023/10/12 15:33:50;;;;;;;11.38;2.30;;;;;;;;;;4954915;28;99205;-81
2023/10/12 15:36:17;;;;;;;9.57;2.65;;;;;;;;;;4970309;28;99813;-79
2023/10/12 15:38:44;;;;;;;8.63;2.47;;;;;;;;;;4963270;28;100319;-80
2023/10/12 15:41:10;;;;;;;8.85;2.75;;;;;;;;;;4969665;28;99142;-80
2023/10/12 15:43:37;;;;;;;7.72;2.45;;;;;;;;;;4964817;28;97826;-80
2023/10/12 15:46:11;;;;;;;8.38;2.42;;;;;;;;;;4947219;28;100446;-80
2023/10/12 15:48:40;;;;;;;7.10;2.28;;;;;;;;;;4950067;28;99780;-81
2023/10/12 15:51:17;;;;;;;9.25;2.60;;;;;;;;;;4948956;28;99860;-80
2023/10/12 15:53:43;;;;;;;6.85;2.60;;;;;;;;;;4954848;28;99759;-80
2023/10/12 15:56:11;;;;;;;7.43;2.28;;;;;;;;;;4930746;28;99336;-80
2023/10/12 15:58:39;;;;;;;8.63;2.47;;;;;;;;;;4951262;28;98475;-80
2023/10/12 16:01:06;;;;;;;7.68;2.55;;;;;;;;;;4956467;28;102007;-80
2023/10/12 16:03:33;;;;;;;9.32;2.72;;;;;;;;;;4937576;28;98678;-79
2023/10/12 16:06:00;;;;;;;9.00;2.97;;;;;;;;;;4942376;28;99868;-79
2023/10/12 16:08:27;;;;;;;;;;;;;;;;;;4956974;28;98634;-79
2023/10/12 16:10:54;;;;;;;7.55;2.97;;;;;;;;;;4943194;28;102591;-79
2023/10/12 16:13:22;;;;;;;9.05;2.78;;;;;;;;;;4926951;28;98926;-80
2023/10/12 16:15:52;;;;;;;6.30;2.40;;;;;;;;;;4926308;28;102904;-80
2023/10/12 16:18:20;;;;;;;8.65;2.80;;;;;;;;;;4955182;28;98478;-79
2023/10/12 16:20:47;;;;;;;8.77;2.70;;;;;;;;;;4953327;28;98806;-80
2023/10/12 16:23:14;;;;;;;8.23;2.70;;;;;;;;;;4951241;28;98614;-81
2023/10/12 16:25:41;;;;;;;9.15;2.70;;;;;;;;;;4968056;28;99173;-80
2023/10/12 16:28:08;;;;;;;10.25;2.70;;;;;;;;;;4947065;28;99718;-80
2023/10/12 16:30:34;;;;;;;8.65;3.05;;;;;;;;;;4946217;28;100011;-80
2023/10/12 16:33:01;;;;;;;6.20;2.65;;;;;;;;;;4948938;28;100878;-80
2023/10/12 16:35:28;;;;;;;8.65;2.78;;;;;;;;;;4961218;28;100388;-80
2023/10/12 16:38:01;;;;;;;6.47;2.22;;;;;;;;;;4967437;28;100544;-78
2023/10/12 16:40:30;;;;;;;9.48;2.70;;;;;;;;;;4962228;28;99905;-81
2023/10/12 16:42:57;;;;;;;9.85;2.88;;;;;;;;;;4951135;28;99716;-79
2023/10/12 16:45:25;;;;;;;7.50;2.65;;;;;;;;;;4957596;28;99549;-80
2023/10/12 16:47:51;;;;;;;6.28;2.58;;;;;;;;;;4961430;28;99229;-79
2023/10/12 16:50:18;;;;;;;6.20;2.65;;;;;;;;;;4949728;28;98626;-80
2023/10/12 16:52:48;;;;;;;8.15;2.50;;;;;;;;;;4966965;28;98788;-80
2023/10/12 16:55:18;;;;;;;7.45;2.70;;;;;;;;;;4926367;28;98853;-80
2023/10/12 16:57:45;;;;;;;6.32;2.45;;;;;;;;;;4943886;28;97869;-81
2023/10/12 17:00:15;;;;;;;6.10;2.20;;;;;;;;;;4957694;28;98681;-81
2023/10/12 17:02:44;;;;;;;5.80;2.42;;;;;;;;;;4953950;28;99600;-81
2023/10/12 17:05:13;;;;;;;5.88;2.47;;;;;;;;;;4965034;28;99651;-81
2023/10/12 17:07:44;;;;;;;7.18;2.70;;;;;;;;;;4960996;28;99207;-81
2023/10/12 17:10:16;;;;;;;7.05;2.60;;;;;;;;;;4908262;28;99228;-79
2023/10/12 17:12:43;;;;;;;6.20;2.20;;;;;;;;;;4946641;28;101647;-79
2023/10/12 17:15:10;;;;;;;7.30;2.88;;;;;;;;;;4945364;28;100468;-80
2023/10/12 17:17:37;;;;;;;6.65;2.40;;;;;;;;;;4953975;28;98902;-80
2023/10/12 17:20:11;;;;;;;6.65;2.97;;;;;;;;;;4963692;28;98786;-79
2023/10/12 17:22:37;;;;;;;;;;;;;;;;;;4956718;28;98613;-80
2023/10/12 17:25:09;;;;;;;5.90;2.40;;;;;;;;;;4942251;28;98596;-80
2023/10/12 17:27:35;;;;;;;5.60;2.30;;;;;;;;;;4942549;28;99329;-80
2023/10/12 17:30:03;;;;;;;7.07;2.70;;;;;;;;;;4954220;28;99775;-79
2023/10/12 17:32:29;;;;;;;5.72;2.50;;;;;;;;;;4954950;28;99779;-80
2023/10/12 17:34:56;;;;;;;5.72;2.50;;;;;;;;;;4946313;28;103298;-80
2023/10/12 17:37:23;;;;;;;6.88;2.72;;;;;;;;;;4944419;28;99053;-80
2023/10/12 17:39:51;;;;;;;7.80;2.63;;;;;;;;;;4960100;28;100724;-80
2023/10/12 17:42:18;;;;;;;6.18;2.50;;;;;;;;;;4958648;28;100151;-79
2023/10/12 17:44:45;;;;;;;6.30;2.38;;;;;;;;;;4952959;28;98784;-79
2023/10/12 17:47:11;;;;;;;6.38;2.65;;;;;;;;;;4939615;28;98834;-79
2023/10/12 17:49:38;;;;;;;6.90;2.80;;;;;;;;;;4959119;28;98739;-79